createdAt,value
2022-11-09T00:01:03.762Z,7.43
2022-11-09T00:03:33.787Z,6.63
2022-11-09T00:06:02.089Z,7.20
2022-11-09T00:08:30.292Z,8.33
2022-11-09T00:11:03.947Z,7.17
2022-11-09T00:13:31.889Z,7.07
2022-11-09T00:16:00.035Z,7.50
2022-11-09T00:18:28.277Z,7.40
2022-11-09T00:20:58.594Z,7.47
2022-11-09T00:23:26.555Z,7.33
2022-11-09T00:25:54.482Z,7.23
2022-11-09T00:28:22.372Z,9.87
2022-11-09T00:30:50.296Z,6.67
2022-11-09T00:33:18.473Z,7.10
2022-11-09T00:35:46.588Z,6.50
2022-11-09T00:38:15.861Z,6.13
2022-11-09T00:40:45.345Z,7.57
2022-11-09T00:43:13.626Z,6.37
2022-11-09T00:45:41.779Z,6.77
2022-11-09T00:48:12.488Z,8.03
2022-11-09T00:50:40.463Z,6.97
2022-11-09T00:53:08.540Z,6.70
2022-11-09T00:55:37.856Z,5.77
2022-11-09T00:58:05.870Z,9.70
2022-11-09T01:00:33.832Z,5.80
2022-11-09T01:03:01.829Z,5.77
2022-11-09T01:05:29.875Z,9.10
2022-11-09T01:07:57.832Z,8.00
2022-11-09T01:10:25.770Z,6.87
2022-11-09T01:12:56.822Z,8.90
2022-11-09T01:15:24.781Z,7.83
2022-11-09T01:17:53.130Z,7.57
2022-11-09T01:20:25.725Z,6.23
2022-11-09T01:22:55.677Z,8.07
2022-11-09T01:25:23.702Z,6.60
2022-11-09T01:27:51.749Z,7.90
2022-11-09T01:30:21.186Z,8.13
2022-11-09T01:32:49.093Z,6.80
2022-11-09T01:35:17.145Z,8.30
2022-11-09T01:37:45.086Z,11.63
2022-11-09T01:40:13.828Z,7.37
2022-11-09T01:42:41.760Z,6.63
2022-11-09T01:45:28.641Z,7.30
2022-11-09T01:48:02.199Z,11.73
2022-11-09T01:50:37.450Z,6.30
2022-11-09T01:53:09.784Z,6.70
2022-11-09T01:55:37.954Z,9.80
2022-11-09T01:58:09.753Z,7.60
2022-11-09T02:00:42.811Z,12.97
2022-11-09T02:03:16.423Z,7.93
2022-11-09T02:05:45.177Z,6.93
2022-11-09T02:08:16.590Z,7.37
2022-11-09T02:10:49.961Z,8.43
2022-11-09T02:13:21.239Z,7.07
2022-11-09T02:15:51.408Z,8.17
2022-11-09T02:18:19.877Z,8.10
2022-11-09T02:20:51.112Z,7.90
2022-11-09T02:23:20.302Z,7.10
2022-11-09T02:25:52.119Z,5.93
2022-11-09T02:28:20.453Z,7.97
2022-11-09T02:30:52.180Z,8.73
2022-11-09T02:33:21.191Z,8.43
2022-11-09T02:35:51.193Z,11.87
2022-11-09T02:38:19.131Z,7.60
2022-11-09T02:40:52.393Z,7.87
2022-11-09T02:43:21.364Z,6.50
2022-11-09T02:45:49.800Z,7.60
2022-11-09T02:48:18.037Z,7.90
2022-11-09T02:50:46.065Z,10.37
2022-11-09T02:53:15.359Z,10.83
2022-11-09T02:55:45.981Z,11.40
2022-11-09T02:58:15.134Z,8.00
2022-11-09T03:00:43.345Z,8.40
2022-11-09T03:03:12.844Z,12.63
2022-11-09T03:05:40.812Z,9.30
2022-11-09T03:08:08.838Z,9.00
2022-11-09T03:10:38.320Z,7.27
2022-11-09T03:13:06.893Z,6.97
2022-11-09T03:15:35.539Z,9.10
2022-11-09T03:18:03.576Z,9.73
2022-11-09T03:20:31.509Z,8.90
2022-11-09T03:22:59.874Z,7.50
2022-11-09T03:25:30.146Z,9.13
2022-11-09T03:28:03.185Z,9.23
2022-11-09T03:30:31.432Z,9.30
2022-11-09T03:33:01.042Z,10.73
2022-11-09T03:35:29.506Z,7.80
2022-11-09T03:37:57.870Z,8.73
2022-11-09T03:40:26.866Z,7.47
2022-11-09T03:42:54.804Z,8.80
2022-11-09T03:45:24.813Z,9.93
2022-11-09T03:47:54.800Z,11.97
2022-11-09T03:50:22.671Z,8.53
2022-11-09T03:52:50.703Z,7.97
2022-11-09T03:55:18.651Z,8.50
2022-11-09T03:57:47.437Z,11.47
2022-11-09T04:00:18.323Z,10.27
2022-11-09T04:02:47.792Z,9.30
2022-11-09T04:05:16.313Z,12.57
2022-11-09T04:07:49.156Z,13.87
2022-11-09T04:10:17.756Z,12.33
2022-11-09T04:12:46.263Z,8.50
2022-11-09T04:15:14.777Z,9.23
2022-11-09T04:17:44.616Z,9.67
2022-11-09T04:20:14.088Z,7.60
2022-11-09T04:22:42.038Z,8.70
2022-11-09T04:25:10.171Z,7.60
2022-11-09T04:27:38.104Z,7.80
2022-11-09T04:30:07.098Z,8.17
2022-11-09T04:32:35.054Z,9.10
2022-11-09T04:35:03.785Z,8.87
2022-11-09T04:37:33.079Z,9.60
2022-11-09T04:40:01.063Z,9.20
2022-11-09T04:42:29.143Z,9.27
2022-11-09T04:44:57.141Z,9.67
2022-11-09T04:47:25.090Z,10.20
2022-11-09T04:49:53.040Z,9.90
2022-11-09T04:52:20.975Z,12.33
2022-11-09T04:54:50.308Z,11.37
2022-11-09T04:57:18.408Z,8.97
2022-11-09T04:59:46.348Z,10.47
2022-11-09T05:02:14.371Z,13.17
2022-11-09T05:04:42.328Z,13.80
2022-11-09T05:07:10.332Z,10.17
2022-11-09T05:09:38.358Z,8.80
2022-11-09T05:12:08.400Z,9.80
2022-11-09T05:14:37.915Z,10.57
2022-11-09T05:17:06.723Z,10.27
2022-11-09T05:19:34.612Z,13.27
2022-11-09T05:22:22.647Z,9.60
2022-11-09T05:24:51.745Z,10.03
2022-11-09T05:27:21.058Z,11.17
2022-11-09T05:29:49.062Z,8.70
2022-11-09T05:32:16.981Z,10.60
2022-11-09T05:34:44.991Z,9.67
2022-11-09T05:37:13.446Z,11.67
2022-11-09T05:39:41.380Z,11.13
2022-11-09T05:42:10.225Z,11.40
2022-11-09T05:44:39.614Z,11.57
2022-11-09T05:47:07.607Z,13.83
2022-11-09T05:49:35.560Z,10.80
2022-11-09T05:52:03.499Z,11.67
2022-11-09T05:54:31.463Z,11.10
2022-11-09T05:57:01.575Z,9.57
2022-11-09T05:59:29.504Z,11.30
2022-11-09T06:01:58.823Z,12.83
2022-11-09T06:04:26.746Z,13.93
2022-11-09T06:06:54.705Z,13.80
2022-11-09T06:09:22.655Z,12.60
2022-11-09T06:11:51.557Z,12.70
2022-11-09T06:14:19.494Z,12.00
2022-11-09T06:16:47.431Z,11.63
2022-11-09T06:19:16.864Z,11.70
2022-11-09T06:21:44.940Z,17.83
2022-11-09T06:24:13.293Z,11.73
2022-11-09T06:26:41.529Z,13.33
2022-11-09T06:29:10.101Z,14.97
2022-11-09T06:31:38.039Z,13.03
2022-11-09T06:34:06.026Z,14.47
2022-11-09T06:36:35.413Z,20.23
2022-11-09T06:39:03.348Z,15.43
2022-11-09T06:41:31.300Z,13.47
2022-11-09T06:43:59.251Z,16.43
2022-11-09T06:46:27.217Z,16.63
2022-11-09T06:48:55.131Z,14.63
2022-11-09T06:51:23.103Z,15.00
2022-11-09T06:53:52.553Z,16.47
2022-11-09T06:56:20.560Z,14.63
2022-11-09T06:58:48.512Z,19.20
2022-11-09T07:01:19.110Z,15.20
2022-11-09T07:03:47.345Z,15.67
2022-11-09T07:06:16.053Z,13.40
2022-11-09T07:08:43.989Z,14.60
2022-11-09T07:11:17.067Z,13.47
2022-11-09T07:13:45.025Z,16.00
2022-11-09T07:16:17.092Z,14.70
2022-11-09T07:18:45.726Z,14.57
2022-11-09T07:21:14.615Z,12.20
2022-11-09T07:23:42.855Z,16.27
2022-11-09T07:26:11.252Z,14.73
2022-11-09T07:28:41.265Z,13.83
2022-11-09T07:31:09.856Z,12.40
2022-11-09T07:33:37.875Z,16.70
2022-11-09T07:36:07.201Z,16.40
2022-11-09T07:38:35.153Z,11.67
2022-11-09T07:41:03.458Z,9.70
2022-11-09T07:43:31.569Z,11.10
2022-11-09T07:46:04.991Z,9.43
2022-11-09T07:48:33.237Z,9.40
2022-11-09T07:51:02.272Z,12.10
2022-11-09T07:53:30.314Z,11.23
2022-11-09T07:55:59.127Z,8.50
2022-11-09T07:58:27.708Z,11.33
2022-11-09T08:00:56.338Z,10.73
2022-11-09T08:03:26.216Z,8.67
2022-11-09T08:05:54.194Z,10.57
2022-11-09T08:08:22.143Z,8.30
2022-11-09T08:10:52.383Z,7.60
2022-11-09T08:13:21.197Z,7.80
2022-11-09T08:15:49.469Z,9.67
2022-11-09T08:18:19.828Z,10.80
2022-11-09T08:20:50.104Z,12.53
2022-11-09T08:23:20.933Z,9.33
2022-11-09T08:25:50.353Z,9.80
2022-11-09T08:28:18.771Z,9.57
2022-11-09T08:30:47.448Z,8.33
2022-11-09T08:33:15.568Z,9.37
2022-11-09T08:35:43.574Z,10.00
2022-11-09T08:38:12.863Z,8.63
2022-11-09T08:40:40.776Z,8.43
2022-11-09T08:43:09.638Z,8.30
2022-11-09T08:45:39.106Z,8.83
2022-11-09T08:48:08.396Z,10.77
2022-11-09T08:50:38.150Z,8.27
2022-11-09T08:53:07.958Z,9.93
2022-11-09T08:55:37.685Z,5.87
2022-11-09T08:58:05.996Z,6.97
2022-11-09T09:00:33.981Z,5.93
2022-11-09T09:03:04.816Z,5.50
2022-11-09T09:05:32.920Z,5.23
2022-11-09T09:08:00.999Z,5.23
2022-11-09T09:10:29.486Z,4.67
2022-11-09T09:12:58.972Z,6.30
2022-11-09T09:15:26.931Z,5.17
2022-11-09T09:17:54.859Z,6.43
2022-11-09T09:20:22.819Z,5.27
2022-11-09T09:22:50.790Z,4.50
2022-11-09T09:25:18.902Z,4.60
2022-11-09T09:27:46.932Z,6.33
2022-11-09T09:30:16.293Z,5.13
2022-11-09T09:32:44.327Z,4.93
2022-11-09T09:35:12.420Z,4.30
2022-11-09T09:37:40.646Z,5.20
2022-11-09T09:40:13.061Z,5.57
2022-11-09T09:42:44.671Z,8.70
2022-11-09T09:45:20.151Z,5.73
2022-11-09T09:47:53.690Z,5.43
2022-11-09T09:50:25.064Z,6.10
2022-11-09T09:53:22.601Z,5.10
2022-11-09T09:55:49.065Z,5.13
2022-11-09T09:58:23.498Z,5.17
2022-11-09T10:00:55.958Z,4.50
2022-11-09T10:03:24.038Z,5.70
2022-11-09T10:05:59.456Z,4.97
2022-11-09T10:08:42.124Z,5.03
2022-11-09T10:11:19.385Z,5.70
2022-11-09T10:14:02.508Z,6.00
2022-11-09T10:16:39.818Z,6.13
2022-11-09T10:19:27.082Z,4.30
2022-11-09T10:22:00.766Z,4.80
2022-11-09T10:24:44.401Z,5.10
2022-11-09T10:27:29.569Z,5.70
2022-11-09T10:29:59.896Z,5.50
2022-11-09T10:32:32.394Z,7.40
2022-11-09T10:35:08.281Z,5.00
2022-11-09T10:37:39.720Z,4.63
2022-11-09T10:40:18.915Z,4.17
2022-11-09T10:43:11.174Z,4.77
2022-11-09T10:46:04.967Z,4.90
2022-11-09T10:48:55.534Z,4.20
2022-11-09T10:51:46.406Z,4.70
2022-11-09T10:54:35.423Z,4.60
2022-11-09T10:57:23.997Z,3.60
2022-11-09T11:00:16.364Z,4.10
2022-11-09T11:03:12.756Z,4.10
2022-11-09T11:06:02.412Z,3.30
2022-11-09T11:08:50.716Z,4.00
2022-11-09T11:11:38.965Z,4.23
2022-11-09T11:14:32.982Z,4.30
2022-11-09T11:17:24.224Z,4.60
2022-11-09T11:20:32.649Z,4.70
2022-11-09T11:23:23.051Z,3.53
2022-11-09T11:26:27.647Z,3.93
2022-11-09T11:29:30.421Z,4.43
2022-11-09T11:32:18.547Z,4.83
2022-11-09T11:35:06.536Z,3.43
2022-11-09T11:38:04.452Z,4.20
2022-11-09T11:41:02.389Z,4.67
2022-11-09T11:43:55.959Z,4.60
2022-11-09T11:46:48.113Z,3.95
2022-11-09T11:50:04.880Z,4.33
2022-11-09T11:53:04.081Z,3.80
2022-11-09T11:56:20.311Z,3.83
2022-11-09T11:59:48.906Z,4.70
2022-11-09T12:02:56.598Z,3.80
2022-11-09T12:06:12.744Z,4.97
2022-11-09T12:09:10.339Z,4.83
2022-11-09T12:12:10.926Z,3.50
2022-11-09T12:15:33.001Z,3.83
2022-11-09T12:18:33.873Z,3.90
2022-11-09T12:21:26.973Z,4.30
2022-11-09T12:24:26.703Z,4.97
2022-11-09T12:27:41.350Z,3.77
2022-11-09T12:30:35.464Z,5.30
2022-11-09T12:33:34.216Z,4.00
2022-11-09T12:36:27.180Z,5.80
2022-11-09T12:39:21.234Z,4.70
2022-11-09T12:42:14.144Z,3.80
2022-11-09T12:45:05.980Z,4.23
2022-11-09T12:47:54.710Z,5.40
2022-11-09T12:50:42.241Z,3.43
2022-11-09T12:53:31.230Z,6.03
2022-11-09T12:56:22.627Z,6.33
2022-11-09T12:59:23.299Z,4.00
2022-11-09T13:02:28.143Z,4.53
2022-11-09T13:05:30.340Z,4.70
2022-11-09T13:08:21.073Z,4.80
2022-11-09T13:11:22.868Z,5.00
2022-11-09T13:14:38.308Z,4.70
2022-11-09T13:18:01.473Z,5.03
2022-11-09T13:20:56.571Z,5.50
2022-11-09T13:24:03.629Z,23.87
2022-11-09T13:26:58.700Z,6.33
2022-11-09T13:29:55.318Z,4.63
2022-11-09T13:33:24.660Z,6.33
2022-11-09T13:36:17.513Z,4.37
2022-11-09T13:39:29.529Z,7.30
2022-11-09T13:42:29.298Z,4.40
2022-11-09T13:45:28.196Z,7.50
2022-11-09T13:48:35.198Z,4.93
2022-11-09T13:51:24.152Z,7.60
2022-11-09T13:54:29.661Z,8.03
2022-11-09T13:57:17.480Z,7.40
2022-11-09T14:00:05.677Z,7.67
2022-11-09T14:02:57.473Z,7.70
2022-11-09T14:05:46.035Z,8.00
2022-11-09T14:08:40.314Z,3.70
2022-11-09T14:11:55.832Z,6.83
2022-11-09T14:15:14.465Z,4.50
2022-11-09T14:18:13.772Z,4.67
2022-11-09T14:21:27.564Z,8.20
2022-11-09T14:24:17.860Z,8.93
2022-11-09T14:27:14.240Z,5.00
2022-11-09T14:30:02.475Z,4.80
2022-11-09T14:32:51.441Z,7.37
2022-11-09T14:35:39.648Z,4.97
2022-11-09T14:38:31.034Z,5.70
2022-11-09T14:41:22.468Z,4.57
2022-11-09T14:44:17.873Z,5.63
2022-11-09T14:47:06.278Z,9.47
2022-11-09T14:49:53.552Z,6.17
2022-11-09T14:52:41.606Z,3.70
2022-11-09T14:55:30.215Z,6.03
2022-11-09T14:58:18.082Z,4.80
2022-11-09T15:01:11.048Z,5.33
2022-11-09T15:04:09.650Z,9.07
2022-11-09T15:06:59.950Z,4.07
2022-11-09T15:09:48.290Z,5.73
2022-11-09T15:12:40.100Z,5.97
2022-11-09T15:15:31.738Z,7.43
2022-11-09T15:18:21.220Z,5.10
2022-11-09T15:21:16.477Z,6.67
2022-11-09T15:24:15.801Z,6.03
2022-11-09T15:27:02.491Z,5.30
2022-11-09T15:29:50.263Z,5.60
2022-11-09T15:32:40.344Z,5.40
2022-11-09T15:35:27.633Z,5.43
2022-11-09T15:38:34.827Z,5.47
2022-11-09T15:41:23.583Z,7.50
2022-11-09T15:44:11.266Z,7.77
2022-11-09T15:46:59.783Z,7.03
2022-11-09T15:49:46.305Z,7.33
2022-11-09T15:52:32.668Z,6.97
2022-11-09T15:55:21.947Z,7.00
2022-11-09T15:58:08.370Z,6.10
2022-11-09T16:00:54.823Z,4.90
2022-11-09T16:03:42.920Z,8.30
2022-11-09T16:06:29.987Z,4.90
2022-11-09T16:09:16.870Z,5.83
2022-11-09T16:12:03.133Z,5.37
2022-11-09T16:14:49.560Z,4.60
2022-11-09T16:17:35.953Z,5.27
2022-11-09T16:20:23.731Z,6.03
2022-11-09T16:23:10.579Z,8.33
2022-11-09T16:25:57.008Z,4.30
2022-11-09T16:28:44.186Z,5.23
2022-11-09T16:31:50.170Z,6.20
2022-11-09T16:34:37.652Z,5.13
2022-11-09T16:37:25.680Z,4.80
2022-11-09T16:40:15.082Z,6.70
2022-11-09T16:43:01.805Z,7.87
2022-11-09T16:45:50.774Z,5.13
2022-11-09T16:48:37.306Z,4.80
2022-11-09T16:51:23.564Z,7.90
2022-11-09T16:54:11.338Z,5.73
2022-11-09T16:56:59.120Z,5.83
2022-11-09T16:59:45.470Z,6.70
2022-11-09T17:02:32.032Z,4.30
2022-11-09T17:05:18.603Z,5.60
2022-11-09T17:08:05.228Z,6.67
2022-11-09T17:10:53.022Z,4.73
2022-11-09T17:13:39.729Z,5.70
2022-11-09T17:16:26.371Z,7.30
2022-11-09T17:19:13.730Z,3.80
2022-11-09T17:22:00.928Z,8.03
2022-11-09T17:24:47.601Z,5.00
2022-11-09T17:27:36.009Z,5.10
2022-11-09T17:30:24.250Z,6.67
2022-11-09T17:33:10.984Z,7.30
2022-11-09T17:36:00.915Z,5.50
2022-11-09T17:38:47.227Z,5.07
2022-11-09T17:41:34.914Z,6.60
2022-11-09T17:44:25.452Z,4.30
2022-11-09T17:47:12.168Z,6.57
2022-11-09T17:49:59.587Z,5.37
2022-11-09T17:52:46.186Z,6.47
2022-11-09T17:55:32.704Z,5.40
2022-11-09T17:58:19.840Z,12.47
2022-11-09T18:01:09.050Z,4.60
2022-11-09T18:03:55.818Z,5.03
2022-11-09T18:06:42.473Z,4.20
2022-11-09T18:09:41.397Z,4.53
2022-11-09T18:12:28.979Z,5.50
2022-11-09T18:15:15.559Z,5.43
2022-11-09T18:18:03.330Z,4.80
2022-11-09T18:20:49.698Z,6.53
2022-11-09T18:23:37.091Z,8.10
2022-11-09T18:26:23.855Z,9.27
2022-11-09T18:29:10.623Z,3.87
2022-11-09T18:31:57.043Z,5.83
2022-11-09T18:34:45.178Z,5.67
2022-11-09T18:37:35.081Z,4.97
2022-11-09T18:40:21.853Z,5.17
2022-11-09T18:43:08.172Z,5.80
2022-11-09T18:45:58.933Z,7.73
2022-11-09T18:48:45.983Z,5.00
2022-11-09T18:51:33.875Z,4.23
2022-11-09T18:54:20.317Z,4.57
2022-11-09T18:57:07.062Z,6.83
2022-11-09T18:59:53.559Z,4.83
2022-11-09T19:02:39.891Z,5.70
2022-11-09T19:05:26.520Z,5.13
2022-11-09T19:08:14.844Z,3.80
2022-11-09T19:11:06.251Z,6.20
2022-11-09T19:13:52.765Z,6.93
2022-11-09T19:16:39.441Z,4.30
2022-11-09T19:19:27.116Z,5.07
2022-11-09T19:22:18.150Z,3.97
2022-11-09T19:25:06.905Z,3.13
2022-11-09T19:27:53.498Z,6.00
2022-11-09T19:30:39.865Z,3.57
2022-11-09T19:33:26.307Z,5.70
2022-11-09T19:36:29.784Z,7.13
2022-11-09T19:39:17.873Z,6.73
2022-11-09T19:42:06.047Z,4.90
2022-11-09T19:44:56.441Z,4.73
2022-11-09T19:47:43.256Z,5.30
2022-11-09T19:50:29.574Z,6.93
2022-11-09T19:53:16.144Z,3.70
2022-11-09T19:56:05.044Z,4.37
2022-11-09T19:58:54.584Z,4.17
2022-11-09T20:01:41.163Z,4.90
2022-11-09T20:04:28.308Z,5.73
2022-11-09T20:07:14.787Z,5.10
2022-11-09T20:10:01.627Z,5.10
2022-11-09T20:12:50.746Z,4.53
2022-11-09T20:15:38.456Z,4.37
2022-11-09T20:18:25.288Z,6.00
2022-11-09T20:21:11.800Z,5.43
2022-11-09T20:23:59.439Z,8.63
2022-11-09T20:26:45.762Z,5.40
2022-11-09T20:29:32.148Z,4.50
2022-11-09T20:32:21.646Z,6.50
2022-11-09T20:35:09.672Z,8.63
2022-11-09T20:37:55.909Z,5.57
2022-11-09T20:40:42.308Z,5.90
2022-11-09T20:43:29.620Z,5.97
2022-11-09T20:46:17.429Z,5.13
2022-11-09T20:49:06.113Z,4.37
2022-11-09T20:51:53.035Z,5.67
2022-11-09T20:54:39.585Z,5.57
2022-11-09T20:57:25.963Z,7.70
2022-11-09T21:00:13.550Z,4.47
2022-11-09T21:03:00.688Z,5.70
2022-11-09T21:05:51.712Z,6.13
2022-11-09T21:08:41.315Z,6.10
2022-11-09T21:11:35.434Z,5.70
2022-11-09T21:14:22.217Z,8.90
2022-11-09T21:17:08.751Z,5.80
2022-11-09T21:19:55.425Z,5.67
2022-11-09T21:23:00.635Z,7.03
2022-11-09T21:26:04.939Z,5.40
2022-11-09T21:29:08.919Z,6.20
2022-11-09T21:31:55.958Z,8.40
2022-11-09T21:34:42.617Z,10.23
2022-11-09T21:37:29.552Z,5.17
2022-11-09T21:40:17.596Z,5.60
2022-11-09T21:43:04.077Z,5.20
2022-11-09T21:45:53.863Z,8.13
2022-11-09T21:48:40.785Z,6.37
2022-11-09T21:51:28.375Z,6.30
2022-11-09T21:54:14.916Z,6.33
2022-11-09T21:57:02.960Z,7.63
2022-11-09T21:59:49.288Z,4.50
2022-11-09T22:02:35.664Z,5.90
2022-11-09T22:05:23.224Z,8.03
2022-11-09T22:08:10.100Z,5.93
2022-11-09T22:11:05.016Z,6.77
2022-11-09T22:14:10.415Z,11.03
2022-11-09T22:16:57.086Z,8.03
2022-11-09T22:20:01.435Z,8.67
2022-11-09T22:22:47.991Z,5.83
2022-11-09T22:25:34.633Z,8.13
2022-11-09T22:28:21.142Z,8.80
2022-11-09T22:31:10.352Z,7.60
2022-11-09T22:33:56.749Z,5.70
2022-11-09T22:36:42.976Z,18.47
2022-11-09T22:39:29.145Z,4.30
2022-11-09T22:42:15.614Z,6.90
2022-11-09T22:45:01.985Z,5.87
2022-11-09T22:47:50.004Z,7.10
2022-11-09T22:50:37.842Z,6.23
2022-11-09T22:53:24.317Z,7.80
2022-11-09T22:56:11.948Z,8.23
2022-11-09T22:58:58.717Z,8.93
2022-11-09T23:01:45.025Z,7.97
2022-11-09T23:04:32.693Z,7.10
2022-11-09T23:07:19.307Z,10.40
2022-11-09T23:10:06.309Z,7.13
2022-11-09T23:12:52.926Z,9.97
2022-11-09T23:15:39.355Z,6.30
2022-11-09T23:18:43.750Z,6.83
2022-11-09T23:21:33.622Z,6.90
2022-11-09T23:24:33.885Z,11.10
2022-11-09T23:27:20.584Z,8.73
2022-11-09T23:30:07.709Z,6.53
2022-11-09T23:32:54.143Z,11.27
2022-11-09T23:35:40.696Z,5.40
2022-11-09T23:38:28.311Z,6.90
2022-11-09T23:41:15.697Z,10.03
2022-11-09T23:44:02.924Z,9.20
2022-11-09T23:46:49.653Z,7.73
2022-11-09T23:49:36.257Z,6.13
2022-11-09T23:52:22.672Z,6.80
2022-11-09T23:55:11.124Z,12.73
2022-11-09T23:58:01.189Z,9.47
